createdAt,value
2017-11-17T00:00:32.126Z,58.35
2017-11-17T00:02:58.904Z,58.50
2017-11-17T00:05:25.347Z,58.46
2017-11-17T00:07:51.567Z,58.49
2017-11-17T00:10:18.200Z,58.56
2017-11-17T00:12:44.419Z,58.82
2017-11-17T00:15:10.623Z,58.86
2017-11-17T00:17:37.140Z,58.88
2017-11-17T00:20:03.385Z,58.85
2017-11-17T00:22:32.643Z,58.96
2017-11-17T00:24:58.921Z,58.86
2017-11-17T00:27:25.122Z,58.72
2017-11-17T00:29:51.344Z,58.84
2017-11-17T00:32:17.702Z,58.97
2017-11-17T00:34:43.937Z,59.04
2017-11-17T00:37:10.152Z,58.91
2017-11-17T00:39:36.588Z,58.89
2017-11-17T00:42:03.121Z,58.85
2017-11-17T00:44:29.355Z,58.86
2017-11-17T00:46:55.697Z,58.80
2017-11-17T00:49:21.904Z,58.89
2017-11-17T00:51:48.115Z,59.00
2017-11-17T00:54:14.450Z,59.03
2017-11-17T00:56:40.676Z,59.02
2017-11-17T00:59:06.891Z,59.13
2017-11-17T01:01:33.490Z,59.25
2017-11-17T01:03:59.703Z,59.35
2017-11-17T01:06:25.929Z,59.46
2017-11-17T01:08:52.291Z,59.54
2017-11-17T01:11:18.754Z,59.66
2017-11-17T01:13:44.983Z,59.60
2017-11-17T01:16:11.649Z,59.79
2017-11-17T01:18:37.862Z,59.98
2017-11-17T01:21:04.060Z,60.10
2017-11-17T01:23:30.329Z,59.86
2017-11-17T01:25:56.525Z,59.69
2017-11-17T01:28:22.969Z,59.62
2017-11-17T01:30:49.228Z,59.65
2017-11-17T01:33:15.531Z,59.57
2017-11-17T01:35:41.985Z,59.55
2017-11-17T01:38:08.347Z,59.63
2017-11-17T01:40:34.648Z,59.55
2017-11-17T01:43:00.917Z,59.47
2017-11-17T01:45:27.186Z,59.51
2017-11-17T01:47:53.431Z,59.48
2017-11-17T01:50:19.649Z,59.48
2017-11-17T01:52:45.968Z,59.80
2017-11-17T01:55:12.182Z,60.03
2017-11-17T01:57:38.534Z,60.14
2017-11-17T02:00:04.799Z,60.35
2017-11-17T02:02:31.012Z,60.32
2017-11-17T02:04:57.251Z,60.43
2017-11-17T02:07:23.912Z,60.49
2017-11-17T02:09:50.109Z,60.49
2017-11-17T02:12:16.344Z,60.77
2017-11-17T02:14:42.590Z,61.29
2017-11-17T02:17:08.824Z,61.51
2017-11-17T02:19:35.041Z,61.75
2017-11-17T02:22:01.330Z,61.70
2017-11-17T02:24:27.555Z,61.73
2017-11-17T02:26:53.778Z,61.69
2017-11-17T02:29:20.373Z,61.85
2017-11-17T02:31:46.842Z,61.90
2017-11-17T02:34:13.080Z,62.05
2017-11-17T02:36:39.362Z,62.18
2017-11-17T02:39:05.602Z,62.11
2017-11-17T02:41:31.823Z,61.97
2017-11-17T02:43:58.189Z,61.91
2017-11-17T02:46:24.392Z,61.85
2017-11-17T02:48:50.691Z,61.82
2017-11-17T02:51:17.288Z,61.66
2017-11-17T02:53:43.529Z,61.80
2017-11-17T02:56:09.751Z,61.66
2017-11-17T02:58:36.114Z,61.77
2017-11-17T03:01:02.321Z,61.81
2017-11-17T03:03:28.545Z,61.79
2017-11-17T03:05:55.384Z,61.80
2017-11-17T03:08:21.581Z,61.74
2017-11-17T03:10:47.789Z,61.87
2017-11-17T03:13:14.298Z,61.69
2017-11-17T03:15:40.516Z,61.56
2017-11-17T03:18:06.989Z,61.53
2017-11-17T03:20:33.617Z,61.46
2017-11-17T03:22:59.843Z,61.37
2017-11-17T03:25:26.053Z,61.30
2017-11-17T03:27:52.355Z,61.38
2017-11-17T03:30:18.666Z,61.40
2017-11-17T03:32:44.879Z,61.40
2017-11-17T03:35:11.144Z,61.46
2017-11-17T03:37:37.352Z,61.47
2017-11-17T03:40:03.566Z,61.43
2017-11-17T03:42:29.861Z,61.47
2017-11-17T03:44:56.095Z,61.54
2017-11-17T03:47:22.335Z,61.75
2017-11-17T03:49:48.681Z,61.81
2017-11-17T03:52:14.912Z,61.79
2017-11-17T03:54:41.141Z,61.64
2017-11-17T03:57:07.412Z,61.56
2017-11-17T03:59:33.640Z,61.40
2017-11-17T04:01:59.872Z,62.04
2017-11-17T04:04:26.160Z,61.90
2017-11-17T04:06:52.379Z,61.68
2017-11-17T04:09:18.600Z,61.56
2017-11-17T04:11:44.859Z,61.49
2017-11-17T04:14:11.318Z,61.40
2017-11-17T04:16:37.504Z,61.44
2017-11-17T04:19:04.031Z,61.26
2017-11-17T04:21:30.371Z,61.47
2017-11-17T04:23:56.575Z,61.47
2017-11-17T04:26:22.849Z,61.37
2017-11-17T04:28:49.063Z,61.54
2017-11-17T04:31:15.290Z,61.65
2017-11-17T04:33:41.943Z,61.69
2017-11-17T04:36:08.157Z,61.61
2017-11-17T04:38:34.349Z,61.53
2017-11-17T04:41:00.632Z,61.54
2017-11-17T04:43:32.851Z,61.51
2017-11-17T04:45:59.055Z,61.47
2017-11-17T04:48:25.416Z,61.40
2017-11-17T04:50:51.630Z,61.49
2017-11-17T04:53:17.827Z,61.34
2017-11-17T04:55:44.390Z,61.34
2017-11-17T04:58:10.608Z,61.33
2017-11-17T05:00:36.840Z,61.44
2017-11-17T05:03:03.116Z,61.38
2017-11-17T05:05:29.365Z,61.40
2017-11-17T05:07:55.622Z,61.38
2017-11-17T05:10:21.972Z,61.43
2017-11-17T05:12:48.168Z,61.36
2017-11-17T05:15:14.616Z,61.86
2017-11-17T05:17:40.966Z,61.40
2017-11-17T05:20:07.217Z,61.36
2017-11-17T05:22:33.426Z,61.76
2017-11-17T05:25:00.018Z,61.47
2017-11-17T05:27:26.231Z,61.41
2017-11-17T05:29:52.682Z,61.19
2017-11-17T05:32:18.937Z,61.60
2017-11-17T05:34:45.140Z,61.60
2017-11-17T05:37:11.352Z,61.61
2017-11-17T05:39:37.833Z,61.34
2017-11-17T05:42:04.020Z,61.85
2017-11-17T05:44:31.783Z,61.43
2017-11-17T05:46:59.820Z,61.04
2017-11-17T05:49:26.987Z,60.90
2017-11-17T05:52:03.011Z,60.82
2017-11-17T05:54:31.720Z,60.74
2017-11-17T05:57:00.387Z,60.57
2017-11-17T05:59:26.948Z,60.43
2017-11-17T06:01:53.183Z,60.41
2017-11-17T06:04:19.408Z,60.36
2017-11-17T06:06:45.938Z,60.35
2017-11-17T06:09:12.151Z,60.46
2017-11-17T06:11:38.347Z,60.49
2017-11-17T06:14:08.757Z,60.41
2017-11-17T06:16:40.412Z,60.35
2017-11-17T06:19:06.840Z,60.26
2017-11-17T06:21:33.075Z,60.17
2017-11-17T06:24:00.253Z,60.16
2017-11-17T06:26:28.583Z,60.12
2017-11-17T06:28:57.128Z,60.04
2017-11-17T06:31:23.335Z,60.08
2017-11-17T06:33:49.690Z,60.00
2017-11-17T06:36:15.914Z,60.30
2017-11-17T06:38:42.137Z,60.61
2017-11-17T06:41:08.493Z,60.64
2017-11-17T06:43:34.702Z,60.51
2017-11-17T06:46:00.970Z,60.53
2017-11-17T06:48:27.251Z,60.46
2017-11-17T06:50:53.459Z,60.72
2017-11-17T06:53:19.985Z,60.91
2017-11-17T06:55:46.240Z,60.94
2017-11-17T06:58:13.475Z,61.01
2017-11-17T07:00:39.942Z,60.80
2017-11-17T07:03:06.215Z,60.83
2017-11-17T07:05:32.818Z,60.64
2017-11-17T07:07:59.057Z,60.54
2017-11-17T07:10:25.418Z,60.62
2017-11-17T07:12:51.627Z,60.60
2017-11-17T07:15:18.082Z,60.59
2017-11-17T07:17:44.365Z,60.48
2017-11-17T07:20:10.575Z,60.49
2017-11-17T07:22:36.800Z,60.51
2017-11-17T07:25:03.296Z,60.63
2017-11-17T07:27:29.640Z,60.88
2017-11-17T07:29:55.855Z,60.50
2017-11-17T07:32:27.995Z,59.98
2017-11-17T07:34:54.279Z,59.96
2017-11-17T07:37:20.491Z,59.90
2017-11-17T07:39:46.707Z,59.84
2017-11-17T07:42:12.945Z,59.81
2017-11-17T07:44:39.159Z,59.66
2017-11-17T07:47:05.389Z,59.52
2017-11-17T07:49:31.695Z,59.51
2017-11-17T07:51:57.929Z,59.49
2017-11-17T07:54:24.138Z,59.40
2017-11-17T07:56:50.414Z,59.16
2017-11-17T07:59:16.786Z,59.18
2017-11-17T08:01:43.012Z,59.17
2017-11-17T08:04:09.279Z,59.15
2017-11-17T08:06:35.779Z,59.17
2017-11-17T08:09:02.216Z,59.24
2017-11-17T08:11:28.822Z,59.13
2017-11-17T08:13:55.043Z,59.02
2017-11-17T08:16:21.275Z,58.93
2017-11-17T08:18:47.555Z,58.87
2017-11-17T08:21:13.857Z,58.79
2017-11-17T08:23:40.080Z,58.78
2017-11-17T08:26:06.342Z,58.75
2017-11-17T08:28:32.562Z,58.67
2017-11-17T08:30:58.796Z,58.62
2017-11-17T08:33:25.053Z,58.51
2017-11-17T08:35:51.237Z,58.43
2017-11-17T08:38:17.437Z,58.36
2017-11-17T08:40:43.815Z,58.31
2017-11-17T08:43:10.297Z,58.30
2017-11-17T08:45:36.500Z,58.34
2017-11-17T08:48:03.096Z,58.24
2017-11-17T08:50:29.309Z,58.22
2017-11-17T08:52:55.883Z,58.16
2017-11-17T08:55:22.126Z,58.19
2017-11-17T08:57:48.343Z,58.12
2017-11-17T09:00:14.627Z,57.91
2017-11-17T09:02:40.864Z,57.81
2017-11-17T09:05:07.096Z,57.75
2017-11-17T09:07:33.476Z,57.74
2017-11-17T09:09:59.709Z,57.64
2017-11-17T09:12:25.935Z,57.63
2017-11-17T09:14:52.419Z,57.59
2017-11-17T09:17:18.649Z,57.54
2017-11-17T09:19:44.936Z,57.52
2017-11-17T09:22:11.201Z,57.50
2017-11-17T09:24:37.420Z,57.27
2017-11-17T09:27:03.640Z,57.21
2017-11-17T09:29:29.912Z,57.29
2017-11-17T09:31:56.154Z,57.31
2017-11-17T09:34:22.370Z,57.38
2017-11-17T09:36:48.740Z,57.29
2017-11-17T09:39:14.956Z,57.24
2017-11-17T09:41:41.165Z,57.04
2017-11-17T09:44:07.504Z,57.05
2017-11-17T09:46:33.991Z,56.90
2017-11-17T09:49:00.201Z,56.67
2017-11-17T09:51:26.584Z,56.73
2017-11-17T09:53:53.031Z,56.77
2017-11-17T09:56:19.247Z,56.79
2017-11-17T09:58:45.792Z,56.71
2017-11-17T10:01:12.025Z,56.35
2017-11-17T10:03:38.243Z,56.20
2017-11-17T10:06:04.523Z,55.99
2017-11-17T10:08:30.774Z,55.89
2017-11-17T10:10:56.991Z,55.81
2017-11-17T10:13:25.595Z,56.21
2017-11-17T10:15:51.800Z,56.09
2017-11-17T10:18:18.018Z,55.79
2017-11-17T10:20:44.402Z,55.86
2017-11-17T10:23:10.610Z,55.95
2017-11-17T10:25:36.840Z,55.88
2017-11-17T10:28:03.097Z,55.85
2017-11-17T10:30:29.315Z,55.77
2017-11-17T10:32:55.572Z,55.65
2017-11-17T10:35:22.073Z,55.59
2017-11-17T10:37:48.510Z,55.46
2017-11-17T10:40:14.801Z,55.49
2017-11-17T10:42:41.016Z,55.51
2017-11-17T10:45:07.215Z,55.46
2017-11-17T10:47:33.479Z,55.35
2017-11-17T10:49:59.667Z,55.29
2017-11-17T10:52:25.915Z,55.14
2017-11-17T10:54:52.820Z,55.10
2017-11-17T10:57:19.063Z,55.04
2017-11-17T10:59:45.392Z,54.93
2017-11-17T11:02:11.661Z,54.84
2017-11-17T11:04:39.768Z,54.75
2017-11-17T11:07:06.126Z,54.81
2017-11-17T11:09:32.446Z,54.72
2017-11-17T11:11:59.616Z,54.65
2017-11-17T11:14:25.912Z,54.72
2017-11-17T11:16:52.356Z,54.91
2017-11-17T11:19:21.059Z,54.88
2017-11-17T11:21:48.066Z,54.98
2017-11-17T11:24:14.715Z,54.97
2017-11-17T11:26:41.027Z,55.04
2017-11-17T11:29:07.248Z,55.08
2017-11-17T11:31:33.487Z,55.12
2017-11-17T11:34:00.369Z,55.16
2017-11-17T11:36:26.662Z,55.12
2017-11-17T11:38:53.087Z,55.06
2017-11-17T11:41:19.771Z,54.93
2017-11-17T11:43:46.290Z,54.98
2017-11-17T11:46:15.061Z,55.10
2017-11-17T11:48:44.180Z,55.02
2017-11-17T11:51:10.823Z,54.96
2017-11-17T11:53:37.285Z,54.85
2017-11-17T11:56:03.600Z,54.86
2017-11-17T11:58:29.838Z,54.88
2017-11-17T12:00:56.040Z,55.02
2017-11-17T12:03:22.387Z,54.98
2017-11-17T12:05:48.589Z,54.82
2017-11-17T12:08:14.776Z,54.82
2017-11-17T12:10:41.185Z,54.71
2017-11-17T12:13:07.403Z,54.61
2017-11-17T12:15:39.566Z,54.52
2017-11-17T12:18:05.832Z,54.65
2017-11-17T12:20:32.026Z,54.60
2017-11-17T12:22:58.300Z,54.59
2017-11-17T12:25:24.554Z,54.49
2017-11-17T12:27:51.001Z,54.43
2017-11-17T12:30:17.197Z,54.41
2017-11-17T12:32:43.648Z,54.31
2017-11-17T12:35:09.869Z,54.36
2017-11-17T12:37:36.063Z,54.46
2017-11-17T12:40:02.316Z,54.48
2017-11-17T12:42:28.517Z,54.43
2017-11-17T12:44:54.748Z,54.38
2017-11-17T12:47:21.101Z,54.28
2017-11-17T12:49:47.323Z,54.29
2017-11-17T12:52:13.748Z,54.23
2017-11-17T12:54:40.347Z,54.11
2017-11-17T12:57:06.574Z,53.99
2017-11-17T12:59:32.776Z,53.96
2017-11-17T13:01:59.119Z,54.03
2017-11-17T13:04:25.339Z,53.97
2017-11-17T13:06:51.554Z,53.99
2017-11-17T13:09:26.790Z,53.86
2017-11-17T13:11:53.444Z,53.66
2017-11-17T13:14:19.642Z,53.60
2017-11-17T13:16:45.883Z,53.52
2017-11-17T13:19:12.328Z,53.48
2017-11-17T13:21:38.543Z,53.36
2017-11-17T13:24:07.831Z,53.26
2017-11-17T13:26:50.869Z,53.20
2017-11-17T13:29:17.226Z,53.25
2017-11-17T13:31:43.423Z,53.27
2017-11-17T13:39:40.395Z,53.69
2017-11-17T13:42:06.641Z,53.63
2017-11-17T13:46:29.759Z,53.62
2017-11-17T13:49:09.134Z,53.74
2017-11-17T13:59:49.940Z,53.72
2017-11-17T14:04:59.958Z,53.71
2017-11-17T14:07:29.677Z,53.75
2017-11-17T14:10:05.023Z,53.77
2017-11-17T14:12:38.135Z,53.76
2017-11-17T14:15:10.923Z,53.77
2017-11-17T14:20:21.418Z,53.49
2017-11-17T14:22:49.743Z,53.48
2017-11-17T14:25:18.236Z,53.49
2017-11-17T14:27:49.139Z,53.45
2017-11-17T14:30:17.773Z,53.47
2017-11-17T14:32:47.091Z,53.50
2017-11-17T14:35:14.970Z,53.54
2017-11-17T14:37:43.023Z,53.57
2017-11-17T14:40:09.701Z,53.50
2017-11-17T14:42:36.354Z,53.45
2017-11-17T14:45:10.445Z,53.49
2017-11-17T14:50:28.270Z,53.50
2017-11-17T14:52:55.975Z,53.62
2017-11-17T14:55:23.887Z,53.65
2017-11-17T14:57:52.371Z,53.75
2017-11-17T15:00:19.200Z,53.87
2017-11-17T15:02:46.881Z,53.95
2017-11-17T15:05:15.818Z,54.03
2017-11-17T15:07:44.444Z,54.18
2017-11-17T15:10:13.308Z,54.30
2017-11-17T15:12:42.021Z,54.43
2017-11-17T15:15:21.056Z,54.52
2017-11-17T15:17:47.822Z,54.62
2017-11-17T15:20:17.792Z,54.75
2017-11-17T15:22:46.642Z,54.83
2017-11-17T15:25:14.983Z,54.89
2017-11-17T15:27:42.721Z,55.01
2017-11-17T15:30:09.445Z,55.07
2017-11-17T15:32:37.211Z,55.10
2017-11-17T15:35:04.374Z,55.15
2017-11-17T15:37:31.028Z,55.20
2017-11-17T15:39:57.773Z,55.24
2017-11-17T15:42:24.515Z,55.32
2017-11-17T15:44:52.697Z,55.33
2017-11-17T15:47:21.496Z,55.28
2017-11-17T15:49:48.959Z,55.30
2017-11-17T15:52:17.728Z,55.41
2017-11-17T15:54:44.272Z,55.44
2017-11-17T15:57:10.749Z,55.43
2017-11-17T15:59:36.980Z,55.59
2017-11-17T16:02:03.284Z,55.60
2017-11-17T16:04:29.491Z,55.63
2017-11-17T16:06:55.824Z,55.71
2017-11-17T16:09:22.122Z,55.77
2017-11-17T16:11:48.467Z,55.79
2017-11-17T16:14:14.920Z,55.84
2017-11-17T16:16:41.212Z,55.88
2017-11-17T16:19:07.433Z,55.90
2017-11-17T16:21:33.732Z,55.91
2017-11-17T16:24:00.810Z,55.95
2017-11-17T16:26:27.033Z,55.93
2017-11-17T16:28:53.286Z,55.95
2017-11-17T16:31:19.721Z,55.96
2017-11-17T16:33:45.925Z,55.99
2017-11-17T16:36:12.140Z,56.00
2017-11-17T16:38:38.492Z,56.04
2017-11-17T16:41:04.803Z,56.02
2017-11-17T16:43:31.018Z,56.09
2017-11-17T16:45:57.298Z,56.07
2017-11-17T16:48:23.511Z,56.17
2017-11-17T16:50:49.734Z,56.24
2017-11-17T16:53:16.046Z,56.28
2017-11-17T16:55:42.281Z,56.32
2017-11-17T16:58:08.498Z,56.37
2017-11-17T17:00:35.222Z,56.42
2017-11-17T17:03:01.761Z,56.36
2017-11-17T17:05:27.950Z,56.25
2017-11-17T17:07:54.208Z,56.24
2017-11-17T17:10:20.441Z,56.26
2017-11-17T17:12:46.820Z,56.29
2017-11-17T17:15:13.097Z,56.21
2017-11-17T17:17:39.639Z,56.22
2017-11-17T17:20:05.859Z,56.28
2017-11-17T17:22:32.088Z,56.26
2017-11-17T17:24:58.345Z,56.25
2017-11-17T17:27:24.536Z,56.27
2017-11-17T17:29:50.753Z,56.29
2017-11-17T17:32:17.045Z,56.30
2017-11-17T17:34:43.249Z,56.31
2017-11-17T17:37:09.461Z,56.31
2017-11-17T17:39:35.835Z,56.29
2017-11-17T17:42:02.057Z,56.28
2017-11-17T17:44:28.291Z,56.23
2017-11-17T17:46:54.566Z,56.16
2017-11-17T17:49:20.781Z,56.23
2017-11-17T17:51:47.008Z,56.20
2017-11-17T17:54:13.355Z,56.20
2017-11-17T17:56:39.673Z,56.18
2017-11-17T17:59:06.113Z,56.12
2017-11-17T18:01:32.573Z,56.13
2017-11-17T18:03:58.795Z,56.11
2017-11-17T18:06:25.016Z,56.09
2017-11-17T18:08:51.280Z,56.06
2017-11-17T18:11:17.480Z,56.05
2017-11-17T18:13:43.706Z,56.05
2017-11-17T18:16:10.194Z,56.08
2017-11-17T18:18:36.402Z,56.07
2017-11-17T18:21:02.692Z,55.99
2017-11-17T18:23:28.959Z,55.99
2017-11-17T18:25:55.275Z,55.98
2017-11-17T18:28:21.476Z,56.07
2017-11-17T18:30:47.764Z,56.08
2017-11-17T18:33:14.005Z,56.03
2017-11-17T18:35:40.206Z,56.03
2017-11-17T18:38:06.519Z,56.06
2017-11-17T18:40:32.724Z,56.11
2017-11-17T18:42:59.223Z,56.04
2017-11-17T18:45:25.548Z,56.07
2017-11-17T18:47:52.027Z,56.15
2017-11-17T18:50:18.256Z,56.09
2017-11-17T18:52:44.527Z,56.04
2017-11-17T18:55:10.971Z,56.02
2017-11-17T18:57:37.189Z,56.05
2017-11-17T19:00:03.580Z,55.91
2017-11-17T19:02:29.754Z,55.87
2017-11-17T19:04:55.947Z,55.84
2017-11-17T19:07:22.381Z,55.81
2017-11-17T19:09:48.635Z,55.84
2017-11-17T19:12:14.795Z,55.85
2017-11-17T19:14:41.146Z,55.80
2017-11-17T19:17:07.357Z,55.84
2017-11-17T19:19:33.853Z,55.79
2017-11-17T19:22:00.188Z,55.67
2017-11-17T19:24:26.395Z,55.68
2017-11-17T19:26:52.610Z,55.69
2017-11-17T19:29:18.956Z,55.60
2017-11-17T19:31:45.158Z,55.57
2017-11-17T19:34:11.362Z,55.69
2017-11-17T19:36:37.621Z,55.71
2017-11-17T19:39:03.902Z,55.73
2017-11-17T19:41:35.992Z,55.76
2017-11-17T19:44:02.934Z,55.77
2017-11-17T19:46:29.139Z,55.75
2017-11-17T19:48:55.340Z,55.65
2017-11-17T19:51:21.583Z,55.77
2017-11-17T19:53:47.797Z,55.81
2017-11-17T19:56:13.998Z,55.78
2017-11-17T19:58:40.576Z,55.75
2017-11-17T20:01:06.800Z,55.67
2017-11-17T20:03:33.292Z,55.68
2017-11-17T20:05:59.571Z,55.69
2017-11-17T20:08:25.769Z,55.69
2017-11-17T20:10:51.995Z,55.71
2017-11-17T20:13:18.518Z,55.70
2017-11-17T20:15:44.744Z,55.68
2017-11-17T20:18:10.968Z,55.66
2017-11-17T20:20:37.300Z,55.67
2017-11-17T20:23:03.507Z,55.71
2017-11-17T20:25:29.779Z,55.71
2017-11-17T20:27:56.048Z,55.73
2017-11-17T20:30:22.266Z,55.68
2017-11-17T20:32:48.704Z,55.64
2017-11-17T20:35:15.052Z,55.64
2017-11-17T20:37:41.249Z,55.62
2017-11-17T20:40:07.447Z,55.63
2017-11-17T20:42:33.699Z,55.70
2017-11-17T20:44:59.902Z,55.77
2017-11-17T20:47:26.094Z,55.71
2017-11-17T20:49:52.436Z,55.66
2017-11-17T20:52:18.889Z,55.65
2017-11-17T20:54:45.096Z,55.59
2017-11-17T20:57:11.589Z,55.64
2017-11-17T20:59:37.783Z,55.67
2017-11-17T21:02:03.973Z,55.61
2017-11-17T21:04:30.306Z,55.56
2017-11-17T21:06:56.499Z,55.54
2017-11-17T21:09:22.990Z,55.54
2017-11-17T21:11:49.250Z,55.55
2017-11-17T21:14:15.444Z,55.58
2017-11-17T21:16:41.644Z,55.59
2017-11-17T21:19:07.879Z,55.56
2017-11-17T21:21:34.099Z,55.48
2017-11-17T21:24:00.459Z,55.44
2017-11-17T21:26:26.703Z,55.45
2017-11-17T21:28:52.962Z,55.55
2017-11-17T21:31:19.249Z,55.53
2017-11-17T21:33:45.461Z,55.51
2017-11-17T21:36:11.657Z,55.51
2017-11-17T21:38:38.077Z,55.51
2017-11-17T21:41:04.278Z,55.44
2017-11-17T21:43:30.496Z,55.42
2017-11-17T21:45:56.839Z,55.21
2017-11-17T21:48:23.053Z,55.26
2017-11-17T21:50:49.269Z,55.26
2017-11-17T21:53:15.629Z,55.26
2017-11-17T21:55:42.131Z,55.24
2017-11-17T21:58:08.311Z,55.17
2017-11-17T22:00:34.566Z,55.10
2017-11-17T22:03:00.784Z,55.20
2017-11-17T22:05:27.051Z,55.26
2017-11-17T22:07:53.407Z,55.25
2017-11-17T22:10:19.614Z,55.26
2017-11-17T22:12:45.829Z,55.16
2017-11-17T22:15:12.168Z,55.14
2017-11-17T22:17:38.377Z,55.18
2017-11-17T22:20:04.762Z,55.20
2017-11-17T22:22:31.266Z,55.18
2017-11-17T22:24:57.563Z,55.15
2017-11-17T22:27:23.775Z,55.18
2017-11-17T22:29:50.018Z,55.20
2017-11-17T22:32:16.215Z,55.18
2017-11-17T22:34:42.431Z,55.06
2017-11-17T22:37:08.714Z,55.05
2017-11-17T22:39:34.940Z,55.08
2017-11-17T22:42:01.254Z,55.09
2017-11-17T22:44:27.518Z,55.08
2017-11-17T22:46:53.716Z,55.05
2017-11-17T22:49:20.162Z,55.12
2017-11-17T22:51:46.505Z,55.06
2017-11-17T22:54:12.948Z,55.06
2017-11-17T22:56:39.396Z,55.04
2017-11-17T22:59:05.645Z,54.99
2017-11-17T23:01:31.841Z,54.96
2017-11-17T23:03:58.048Z,54.84
2017-11-17T23:06:24.396Z,54.83
2017-11-17T23:08:50.604Z,54.76
2017-11-17T23:11:16.825Z,54.82
2017-11-17T23:13:43.353Z,54.71
2017-11-17T23:16:09.573Z,54.63
2017-11-17T23:18:35.786Z,54.64
2017-11-17T23:21:02.160Z,54.61
2017-11-17T23:23:28.395Z,54.61
2017-11-17T23:25:54.600Z,54.65
2017-11-17T23:28:20.877Z,54.67
2017-11-17T23:30:47.084Z,54.59
2017-11-17T23:33:13.278Z,54.55
2017-11-17T23:35:39.862Z,54.50
2017-11-17T23:38:06.075Z,54.46
2017-11-17T23:40:32.280Z,54.45
2017-11-17T23:42:58.555Z,54.42
2017-11-17T23:45:25.009Z,54.38
2017-11-17T23:47:51.216Z,54.43
2017-11-17T23:50:17.502Z,54.48
2017-11-17T23:52:44.020Z,54.45
2017-11-17T23:55:10.236Z,54.41
2017-11-17T23:57:36.588Z,54.45
